Etusivu
METAR-TAF:

METAR-TAF

Lentoasemat :

Fort-de-France, Martinique

Leveyspiiri: 14-36N, Pituuspiiri: 061-00W, korkeus merenpinnasta: 5 m

Tämänhetkinen sää

Tämä raportti tehtiin 21 minuuttia sitten, kello 07.00 UTC
Tuuli 5 kn idästä
Lämpötila 25°C
Kosteus 83%
Ilmanpaine 1013 hPa
Näkyvyys 10 km tai enemmän
ei pilviä alle 1500 m:ssä eikä cumulonimbus-pilviä

METAR: TFFF 240700Z AUTO 08005KT CAVOK 25/22 Q1013

Aika: 03:21 (07:21 UTC)

Sääennuste

Tämä raportti tehtiin 8 tuntia ja 21 minuuttia sitten, kello 23.00 UTC
Ennuste voimassa 24. päivästä klo 00 UTC - 24. päivään klo 24 UTC
Tuuli 10 kn idästä
Näkyvyys 10 km tai enemmän
Hajanaisia pilviä 2600 ft:n korkeudessa
Todennäköisyys 30% :
Ajoittain
24. päivästä klo 12 UTC - 24. päivään klo 24 UTC
Näkyvyys: 4000 m
Hajanaisia pilviä 1800 ft:n korkeudessa, Kasvava cumulus-pilvi.
vesikuuroja

TAF: TFFF 232300Z 2400/2424 10010KT 9999 SCT026 PROB30 TEMPO 2412/2424 4000 SHRA SCT018TCU

Säähavainnot ja -ennusteet yli 4000 lentoasemalta (METAR- ja TAF-raportit).

Käytössä olevat sääasemat on merkitty karttaan keltaisilla ja punaisilla pisteillä.

Aseta hiiri pisteen päälle nähdäksesi sääaseman nimen.

Klikkaa sitten nähdäksesi säähavainnot ja -ennusteet.

Kartan vaihtaminen: klikkaa mustalla rastilla varustettuja vihreitä pisteitä, niin voit zoomata sisään; viivalla varustettua vihreää pistettä, niin voit zoomata ulos tai vihreitä nuolia, niin pääset viereisille kartoille.


METAR-TAF: